createdAt,value
2023-04-09T00:01:04.607Z,6.98
2023-04-09T00:03:31.666Z,7.13
2023-04-09T00:05:58.720Z,7.18
2023-04-09T00:08:26.179Z,7.11
2023-04-09T00:10:54.213Z,7.05
2023-04-09T00:13:35.389Z,7.05
2023-04-09T00:16:05.869Z,6.96
2023-04-09T00:18:32.875Z,7.01
2023-04-09T00:20:59.768Z,6.91
2023-04-09T00:23:26.860Z,6.61
2023-04-09T00:25:54.071Z,6.77
2023-04-09T00:28:21.004Z,6.94
2023-04-09T00:30:47.989Z,6.97
2023-04-09T00:33:14.741Z,7.14
2023-04-09T00:35:41.690Z,6.90
2023-04-09T00:38:08.529Z,6.78
2023-04-09T00:40:35.751Z,6.67
2023-04-09T00:43:03.302Z,6.89
2023-04-09T00:45:30.403Z,6.62
2023-04-09T00:47:57.454Z,6.82
2023-04-09T00:50:24.336Z,6.66
2023-04-09T00:52:51.620Z,6.67
2023-04-09T00:55:19.298Z,6.61
2023-04-09T00:57:47.125Z,6.59
2023-04-09T01:00:14.731Z,6.48
2023-04-09T01:02:42.674Z,6.70
2023-04-09T01:05:11.042Z,6.57
2023-04-09T01:08:13.521Z,6.59
2023-04-09T01:10:47.675Z,6.52
2023-04-09T01:13:42.709Z,6.62
2023-04-09T01:16:13.093Z,6.63
2023-04-09T01:18:57.323Z,6.48
2023-04-09T01:21:31.388Z,6.69
2023-04-09T01:24:25.137Z,6.70
2023-04-09T01:27:06.050Z,6.73
2023-04-09T01:29:36.170Z,6.67
2023-04-09T01:32:06.031Z,6.70
2023-04-09T01:34:33.713Z,6.72
2023-04-09T01:37:03.715Z,6.67
2023-04-09T01:39:31.589Z,6.66
2023-04-09T01:41:59.007Z,6.57
2023-04-09T01:44:27.876Z,6.58
2023-04-09T01:46:55.472Z,6.64
2023-04-09T01:49:22.969Z,6.82
2023-04-09T01:51:50.893Z,6.67
2023-04-09T01:54:17.830Z,6.45
2023-04-09T01:56:47.963Z,6.50
2023-04-09T01:59:15.282Z,6.42
2023-04-09T02:01:47.445Z,6.49
2023-04-09T02:04:36.284Z,6.24
2023-04-09T02:07:11.746Z,6.40
2023-04-09T02:09:41.808Z,6.38
2023-04-09T02:12:13.471Z,6.36
2023-04-09T02:14:41.757Z,6.43
2023-04-09T02:17:08.828Z,6.51
2023-04-09T02:19:46.199Z,6.41
2023-04-09T02:22:14.051Z,6.58
2023-04-09T02:24:41.825Z,6.50
2023-04-09T02:27:09.200Z,6.56
2023-04-09T02:29:36.104Z,6.35
2023-04-09T02:32:02.900Z,6.52
2023-04-09T02:34:29.968Z,6.41
2023-04-09T02:36:57.093Z,6.61
2023-04-09T02:39:24.122Z,6.51
2023-04-09T02:41:50.984Z,6.67
2023-04-09T02:44:17.904Z,6.32
2023-04-09T02:46:46.616Z,6.53
2023-04-09T02:49:13.509Z,6.87
2023-04-09T02:51:40.563Z,6.78
2023-04-09T02:54:07.365Z,6.60
2023-04-09T02:56:34.399Z,6.63
2023-04-09T02:59:01.438Z,6.94
2023-04-09T03:01:28.532Z,7.16
2023-04-09T03:03:55.743Z,7.14
2023-04-09T03:06:22.909Z,6.96
2023-04-09T03:08:49.992Z,6.85
2023-04-09T03:11:16.999Z,6.79
2023-04-09T03:13:44.253Z,7.08
2023-04-09T03:16:11.402Z,6.97
2023-04-09T03:18:38.588Z,6.83
2023-04-09T03:21:07.726Z,6.89
2023-04-09T03:23:35.363Z,6.80
2023-04-09T03:26:06.447Z,6.60
2023-04-09T03:28:33.764Z,6.76
2023-04-09T03:31:00.655Z,7.00
2023-04-09T03:33:27.580Z,6.98
2023-04-09T03:35:54.578Z,7.27
2023-04-09T03:38:21.476Z,7.15
2023-04-09T03:40:48.546Z,7.04
2023-04-09T03:43:15.571Z,7.15
2023-04-09T03:45:42.650Z,6.98
2023-04-09T03:48:09.502Z,7.11
2023-04-09T03:50:41.091Z,7.07
2023-04-09T03:53:08.098Z,7.04
2023-04-09T03:55:35.006Z,7.03
2023-04-09T03:58:02.252Z,7.15
2023-04-09T04:00:29.206Z,7.32
2023-04-09T04:02:56.559Z,7.19
2023-04-09T04:05:26.226Z,7.09
2023-04-09T04:07:54.020Z,7.03
2023-04-09T04:10:20.968Z,7.10
2023-04-09T04:12:48.117Z,7.11
2023-04-09T04:15:15.318Z,7.25
2023-04-09T04:17:42.458Z,7.09
2023-04-09T04:20:11.198Z,7.17
2023-04-09T04:22:38.276Z,7.11
2023-04-09T04:25:05.626Z,7.05
2023-04-09T04:27:32.676Z,7.13
2023-04-09T04:30:00.405Z,7.05
2023-04-09T04:32:27.713Z,6.93
2023-04-09T04:34:54.994Z,7.11
2023-04-09T04:37:22.147Z,6.81
2023-04-09T04:39:49.146Z,6.90
2023-04-09T04:42:17.076Z,6.92
2023-04-09T04:44:44.950Z,6.91
2023-04-09T04:47:12.010Z,6.68
2023-04-09T04:49:38.934Z,6.64
2023-04-09T04:52:07.846Z,6.44
2023-04-09T04:54:34.685Z,6.78
2023-04-09T04:57:01.813Z,6.81
2023-04-09T04:59:29.197Z,6.69
2023-04-09T05:01:56.501Z,6.56
2023-04-09T05:04:23.502Z,6.73
2023-04-09T05:06:50.609Z,6.67
2023-04-09T05:09:20.547Z,6.75
2023-04-09T05:11:48.698Z,6.83
2023-04-09T05:14:15.921Z,6.88
2023-04-09T05:16:43.034Z,6.90
2023-04-09T05:19:10.089Z,6.85
2023-04-09T05:21:37.139Z,6.74
2023-04-09T05:24:04.069Z,6.72
2023-04-09T05:26:31.062Z,6.73
2023-04-09T05:28:58.061Z,6.51
2023-04-09T05:31:25.188Z,6.64
2023-04-09T05:33:53.072Z,6.70
2023-04-09T05:36:20.727Z,6.83
2023-04-09T05:38:48.448Z,6.72
2023-04-09T05:41:15.385Z,6.42
2023-04-09T05:43:43.247Z,6.53
2023-04-09T05:46:10.508Z,6.43
2023-04-09T05:48:37.754Z,6.32
2023-04-09T05:51:04.679Z,6.43
2023-04-09T05:53:32.177Z,6.42
2023-04-09T05:55:59.272Z,6.39
2023-04-09T05:58:26.346Z,6.54
2023-04-09T06:00:53.295Z,6.53
2023-04-09T06:03:20.782Z,6.51
2023-04-09T06:05:48.530Z,6.69
2023-04-09T06:08:15.697Z,6.84
2023-04-09T06:10:42.693Z,6.85
2023-04-09T06:13:10.556Z,7.10
2023-04-09T06:15:39.326Z,6.97
2023-04-09T06:18:06.615Z,6.97
2023-04-09T06:20:33.750Z,7.16
2023-04-09T06:23:00.848Z,7.12
2023-04-09T06:25:27.808Z,7.18
2023-04-09T06:27:54.755Z,7.34
2023-04-09T06:30:22.075Z,7.10
2023-04-09T06:32:54.309Z,6.94
2023-04-09T06:35:22.100Z,7.22
2023-04-09T06:37:49.722Z,7.33
2023-04-09T06:40:16.592Z,6.97
2023-04-09T06:42:43.596Z,7.04
2023-04-09T06:45:10.876Z,6.99
2023-04-09T06:47:37.942Z,6.92
2023-04-09T06:50:05.542Z,6.86
2023-04-09T06:52:32.414Z,7.07
2023-04-09T06:54:59.391Z,7.09
2023-04-09T06:57:27.435Z,7.18
2023-04-09T06:59:54.347Z,7.34
2023-04-09T07:02:21.735Z,7.26
2023-04-09T07:04:49.014Z,7.06
2023-04-09T07:07:16.188Z,6.95
2023-04-09T07:09:43.435Z,7.07
2023-04-09T07:12:10.194Z,7.18
2023-04-09T07:14:37.068Z,7.32
2023-04-09T07:17:04.118Z,7.22
2023-04-09T07:19:31.288Z,7.12
2023-04-09T07:21:58.284Z,7.15
2023-04-09T07:24:25.557Z,7.19
2023-04-09T07:26:52.623Z,6.92
2023-04-09T07:29:21.012Z,6.97
2023-04-09T07:31:48.185Z,6.94
2023-04-09T07:34:15.129Z,6.79
2023-04-09T07:36:43.001Z,6.87
2023-04-09T07:39:10.200Z,7.09
2023-04-09T07:41:37.870Z,7.14
2023-04-09T07:44:06.500Z,7.28
2023-04-09T07:46:33.523Z,7.41
2023-04-09T07:49:00.506Z,7.55
2023-04-09T07:51:28.062Z,7.88
2023-04-09T07:53:54.998Z,8.39
2023-04-09T07:56:21.855Z,8.71
2023-04-09T07:58:49.553Z,8.95
2023-04-09T08:01:16.946Z,9.24
2023-04-09T08:03:44.230Z,9.09
2023-04-09T08:06:11.265Z,9.11
2023-04-09T08:08:38.467Z,8.65
2023-04-09T08:11:05.569Z,8.30
2023-04-09T08:13:32.408Z,8.65
2023-04-09T08:16:02.627Z,8.81
2023-04-09T08:18:32.625Z,8.93
2023-04-09T08:20:59.578Z,9.12
2023-04-09T08:23:26.373Z,9.53
2023-04-09T08:25:53.465Z,9.73
2023-04-09T08:28:20.283Z,9.74
2023-04-09T08:30:47.887Z,9.96
2023-04-09T08:33:14.872Z,10.02
2023-04-09T08:35:42.078Z,9.90
2023-04-09T08:38:08.960Z,9.99
2023-04-09T08:40:36.316Z,10.03
2023-04-09T08:43:07.187Z,9.72
2023-04-09T08:45:34.320Z,9.54
2023-04-09T08:48:04.084Z,9.68
2023-04-09T08:50:34.421Z,9.65
2023-04-09T08:53:04.940Z,9.90
2023-04-09T08:55:34.694Z,10.03
2023-04-09T08:58:05.347Z,10.12
2023-04-09T09:00:32.676Z,10.32
2023-04-09T09:03:08.645Z,10.07
2023-04-09T09:05:37.757Z,10.17
2023-04-09T09:08:04.732Z,9.94
2023-04-09T09:10:45.304Z,9.71
2023-04-09T09:13:28.788Z,9.64
2023-04-09T09:16:13.199Z,9.91
2023-04-09T09:18:43.019Z,10.19
2023-04-09T09:21:14.478Z,10.15
2023-04-09T09:23:42.546Z,10.27
2023-04-09T09:26:18.511Z,10.28
2023-04-09T09:28:50.169Z,10.71
2023-04-09T09:31:19.218Z,10.76
2023-04-09T09:33:47.633Z,11.22
2023-04-09T09:36:16.318Z,11.62
2023-04-09T09:39:03.632Z,12.02
2023-04-09T09:41:31.498Z,12.08
2023-04-09T09:43:58.608Z,11.98
2023-04-09T09:46:27.360Z,11.96
2023-04-09T09:48:55.100Z,12.18
2023-04-09T09:51:28.105Z,11.85
2023-04-09T09:53:58.248Z,11.30
2023-04-09T09:56:37.312Z,11.44
2023-04-09T09:59:12.866Z,11.42
2023-04-09T10:01:41.509Z,11.14
2023-04-09T10:04:13.927Z,11.02
2023-04-09T10:06:45.189Z,11.12
2023-04-09T10:09:13.491Z,11.26
2023-04-09T10:11:45.757Z,11.39
2023-04-09T10:14:13.850Z,11.21
2023-04-09T10:16:42.197Z,11.39
2023-04-09T10:19:14.338Z,11.42
2023-04-09T10:22:04.493Z,11.84
2023-04-09T10:24:34.059Z,11.86
2023-04-09T10:27:16.832Z,11.54
2023-04-09T10:29:52.204Z,11.54
2023-04-09T10:32:28.703Z,11.77
2023-04-09T10:35:02.064Z,11.53
2023-04-09T10:37:30.164Z,11.51
2023-04-09T10:39:57.987Z,11.26
2023-04-09T10:42:30.796Z,11.04
2023-04-09T10:45:11.852Z,11.03
2023-04-09T10:47:40.992Z,11.71
2023-04-09T10:50:18.188Z,11.56
2023-04-09T10:52:45.879Z,11.71
2023-04-09T10:55:33.358Z,12.41
2023-04-09T10:58:00.537Z,12.12
2023-04-09T11:00:27.507Z,12.54
2023-04-09T11:03:04.570Z,13.45
2023-04-09T11:05:34.188Z,14.51
2023-04-09T11:08:06.969Z,14.93
2023-04-09T11:10:33.989Z,17.25
2023-04-09T11:13:01.495Z,17.89
2023-04-09T11:15:29.171Z,20.38
2023-04-09T11:17:57.852Z,20.68
2023-04-09T11:20:26.209Z,22.45
2023-04-09T11:22:55.605Z,22.37
2023-04-09T11:25:27.752Z,21.56
2023-04-09T11:27:55.118Z,18.07
2023-04-09T11:30:22.235Z,18.14
2023-04-09T11:32:50.512Z,18.54
2023-04-09T11:35:22.256Z,18.20
2023-04-09T11:37:50.445Z,18.35
2023-04-09T11:40:18.571Z,18.02
2023-04-09T11:42:47.403Z,17.62
2023-04-09T11:45:16.108Z,17.26
2023-04-09T11:47:44.772Z,19.50
2023-04-09T11:50:13.178Z,20.58
2023-04-09T11:52:41.713Z,21.63
2023-04-09T11:55:10.248Z,22.25
2023-04-09T11:57:47.206Z,23.10
2023-04-09T12:00:16.911Z,21.32
2023-04-09T12:02:49.624Z,21.71
2023-04-09T12:05:29.575Z,24.94
2023-04-09T12:08:01.462Z,26.23
2023-04-09T12:10:33.806Z,25.03
2023-04-09T12:13:09.316Z,20.01
2023-04-09T12:15:38.730Z,19.54
2023-04-09T12:18:08.966Z,22.21
2023-04-09T12:20:40.990Z,22.05
2023-04-09T12:23:08.887Z,21.04
2023-04-09T12:25:37.874Z,19.25
2023-04-09T12:28:06.404Z,17.11
2023-04-09T12:30:34.314Z,16.37
2023-04-09T12:33:03.303Z,17.13
2023-04-09T12:35:30.302Z,17.08
2023-04-09T12:37:57.273Z,16.08
2023-04-09T12:40:24.256Z,15.45
2023-04-09T12:42:51.975Z,15.04
2023-04-09T12:45:20.100Z,15.47
2023-04-09T12:47:47.291Z,14.37
2023-04-09T12:50:16.408Z,14.63
2023-04-09T12:52:44.480Z,14.43
2023-04-09T12:55:12.433Z,14.57
2023-04-09T12:57:40.523Z,14.35
2023-04-09T13:00:08.140Z,14.65
2023-04-09T13:02:36.097Z,15.32
2023-04-09T13:05:04.433Z,15.60
2023-04-09T13:07:31.669Z,16.28
2023-04-09T13:09:59.898Z,16.63
2023-04-09T13:12:27.313Z,16.70
2023-04-09T13:14:55.208Z,15.94
2023-04-09T13:17:24.179Z,15.38
2023-04-09T13:19:54.319Z,14.38
2023-04-09T13:22:21.314Z,13.91
2023-04-09T13:24:48.226Z,14.10
2023-04-09T13:27:15.381Z,13.84
2023-04-09T13:29:42.395Z,13.83
2023-04-09T13:32:11.348Z,14.24
2023-04-09T13:34:39.855Z,14.54
2023-04-09T13:37:07.397Z,14.50
2023-04-09T13:39:34.475Z,14.07
2023-04-09T13:42:07.298Z,14.14
2023-04-09T13:44:36.828Z,14.59
2023-04-09T13:47:03.854Z,14.52
2023-04-09T13:49:31.072Z,13.90
2023-04-09T13:51:58.475Z,14.06
2023-04-09T13:54:25.330Z,14.18
2023-04-09T13:56:52.391Z,13.92
2023-04-09T13:59:19.364Z,13.75
2023-04-09T14:01:46.611Z,13.89
2023-04-09T14:04:15.635Z,13.79
2023-04-09T14:06:43.124Z,13.35
2023-04-09T14:09:11.254Z,13.21
2023-04-09T14:11:38.747Z,13.62
2023-04-09T14:14:05.674Z,14.03
2023-04-09T14:16:32.759Z,14.43
2023-04-09T14:18:59.803Z,14.75
2023-04-09T14:21:27.522Z,14.73
2023-04-09T14:23:54.756Z,13.85
2023-04-09T14:26:24.310Z,13.92
2023-04-09T14:28:51.828Z,13.72
2023-04-09T14:31:22.077Z,13.69
2023-04-09T14:33:49.196Z,13.59
2023-04-09T14:36:16.974Z,13.50
2023-04-09T14:38:44.140Z,13.59
2023-04-09T14:41:11.217Z,13.68
2023-04-09T14:43:38.200Z,13.67
2023-04-09T14:46:06.583Z,13.45
2023-04-09T14:48:33.548Z,13.41
2023-04-09T14:51:02.340Z,13.37
2023-04-09T14:53:29.137Z,14.13
2023-04-09T14:55:56.084Z,13.83
2023-04-09T14:58:23.289Z,13.60
2023-04-09T15:00:50.507Z,13.58
2023-04-09T15:03:17.833Z,13.57
2023-04-09T15:05:45.193Z,13.44
2023-04-09T15:08:13.375Z,13.44
2023-04-09T15:10:40.444Z,13.59
2023-04-09T15:13:07.296Z,13.57
2023-04-09T15:15:34.194Z,13.46
2023-04-09T15:18:05.784Z,13.60
2023-04-09T15:20:39.573Z,13.34
2023-04-09T15:23:06.556Z,13.34
2023-04-09T15:25:33.395Z,13.55
2023-04-09T15:28:00.254Z,13.76
2023-04-09T15:30:27.372Z,13.73
2023-04-09T15:32:54.385Z,13.64
2023-04-09T15:35:25.320Z,13.28
2023-04-09T15:37:52.356Z,13.23
2023-04-09T15:40:20.389Z,13.07
2023-04-09T15:42:47.330Z,13.23
2023-04-09T15:45:17.339Z,13.17
2023-04-09T15:47:45.250Z,13.02
2023-04-09T15:50:12.885Z,12.96
2023-04-09T15:52:39.899Z,13.33
2023-04-09T15:55:07.375Z,13.53
2023-04-09T15:57:34.316Z,13.24
2023-04-09T16:00:01.192Z,13.31
2023-04-09T16:02:37.319Z,13.17
2023-04-09T16:05:04.545Z,12.93
2023-04-09T16:07:31.903Z,12.70
2023-04-09T16:10:01.472Z,12.51
2023-04-09T16:12:28.442Z,12.26
2023-04-09T16:14:55.361Z,12.27
2023-04-09T16:17:22.313Z,12.41
2023-04-09T16:19:49.377Z,12.26
2023-04-09T16:22:16.744Z,12.25
2023-04-09T16:24:43.878Z,12.12
2023-04-09T16:27:11.347Z,11.99
2023-04-09T16:29:38.308Z,12.02
2023-04-09T16:32:06.272Z,12.07
2023-04-09T16:34:33.263Z,12.01
2023-04-09T16:37:00.386Z,11.98
2023-04-09T16:39:27.337Z,11.75
2023-04-09T16:41:54.384Z,11.81
2023-04-09T16:44:21.576Z,11.66
2023-04-09T16:46:49.270Z,11.69
2023-04-09T16:49:16.611Z,11.66
2023-04-09T16:51:43.745Z,11.51
2023-04-09T16:54:11.025Z,11.53
2023-04-09T16:56:37.884Z,11.57
2023-04-09T16:59:04.705Z,11.54
2023-04-09T17:01:31.839Z,11.50
2023-04-09T17:04:00.899Z,11.40
2023-04-09T17:06:28.096Z,11.29
2023-04-09T17:08:55.088Z,11.18
2023-04-09T17:11:23.764Z,11.08
2023-04-09T17:13:50.683Z,11.15
2023-04-09T17:16:18.510Z,11.10
2023-04-09T17:18:45.660Z,10.87
2023-04-09T17:21:12.945Z,10.68
2023-04-09T17:23:39.892Z,10.66
2023-04-09T17:26:07.154Z,10.60
2023-04-09T17:28:36.768Z,10.51
2023-04-09T17:31:03.920Z,10.49
2023-04-09T17:33:30.920Z,10.36
2023-04-09T17:35:57.911Z,10.25
2023-04-09T17:38:25.424Z,10.12
2023-04-09T17:40:56.133Z,10.02
2023-04-09T17:43:22.949Z,9.95
2023-04-09T17:45:49.790Z,9.82
2023-04-09T17:48:16.744Z,9.84
2023-04-09T17:50:43.968Z,9.79
2023-04-09T17:53:10.881Z,9.77
2023-04-09T17:55:37.652Z,9.67
2023-04-09T17:58:04.655Z,9.68
2023-04-09T18:00:31.932Z,9.57
2023-04-09T18:02:59.268Z,9.43
2023-04-09T18:05:26.766Z,9.39
2023-04-09T18:07:55.109Z,9.35
2023-04-09T18:10:22.702Z,9.16
2023-04-09T18:12:49.658Z,8.98
2023-04-09T18:15:18.786Z,9.03
2023-04-09T18:17:46.451Z,8.98
2023-04-09T18:20:15.576Z,8.89
2023-04-09T18:22:43.502Z,8.91
2023-04-09T18:25:10.864Z,8.76
2023-04-09T18:27:37.877Z,8.74
2023-04-09T18:30:05.406Z,8.35
2023-04-09T18:32:32.486Z,8.65
2023-04-09T18:34:59.382Z,8.62
2023-04-09T18:37:28.004Z,8.65
2023-04-09T18:39:54.726Z,8.59
2023-04-09T18:42:21.926Z,8.53
2023-04-09T18:44:48.906Z,8.44
2023-04-09T18:47:15.946Z,8.39
2023-04-09T18:49:43.324Z,8.35
2023-04-09T18:52:10.447Z,8.24
2023-04-09T18:54:39.068Z,8.27
2023-04-09T18:57:06.227Z,8.14
2023-04-09T18:59:36.429Z,8.19
2023-04-09T19:02:06.814Z,8.22
2023-04-09T19:04:40.084Z,8.02
2023-04-09T19:07:07.280Z,8.01
2023-04-09T19:09:35.061Z,8.02
2023-04-09T19:12:02.134Z,7.90
2023-04-09T19:14:29.215Z,7.80
2023-04-09T19:17:00.968Z,7.68
2023-04-09T19:19:29.199Z,7.75
2023-04-09T19:21:56.188Z,7.80
2023-04-09T19:24:23.878Z,7.72
2023-04-09T19:26:52.959Z,7.73
2023-04-09T19:29:20.288Z,7.60
2023-04-09T19:31:47.522Z,7.55
2023-04-09T19:34:15.109Z,7.55
2023-04-09T19:36:41.923Z,7.42
2023-04-09T19:39:11.265Z,7.41
2023-04-09T19:41:38.408Z,7.30
2023-04-09T19:44:07.648Z,7.33
2023-04-09T19:46:34.955Z,7.19
2023-04-09T19:49:01.887Z,7.00
2023-04-09T19:51:29.138Z,6.92
2023-04-09T19:53:56.751Z,6.99
2023-04-09T19:56:23.746Z,6.97
2023-04-09T19:58:50.596Z,6.86
2023-04-09T20:01:17.620Z,6.90
2023-04-09T20:03:44.874Z,6.83
2023-04-09T20:06:11.981Z,6.90
2023-04-09T20:08:38.837Z,6.84
2023-04-09T20:11:07.185Z,6.90
2023-04-09T20:13:36.639Z,6.74
2023-04-09T20:16:04.938Z,6.74
2023-04-09T20:18:32.283Z,6.61
2023-04-09T20:20:59.393Z,6.65
2023-04-09T20:23:26.585Z,6.68
2023-04-09T20:25:56.478Z,6.75
2023-04-09T20:28:23.704Z,6.70
2023-04-09T20:30:50.802Z,6.72
2023-04-09T20:33:21.018Z,6.54
2023-04-09T20:35:50.471Z,6.66
2023-04-09T20:38:22.782Z,6.54
2023-04-09T20:40:49.659Z,6.44
2023-04-09T20:43:16.909Z,6.34
2023-04-09T20:45:44.283Z,6.25
2023-04-09T20:48:12.161Z,6.23
2023-04-09T20:50:39.137Z,6.14
2023-04-09T20:53:05.936Z,6.20
2023-04-09T20:55:33.007Z,6.06
2023-04-09T20:58:00.620Z,6.25
2023-04-09T21:00:27.850Z,6.19
2023-04-09T21:02:55.302Z,6.17
2023-04-09T21:05:23.921Z,6.03
2023-04-09T21:07:52.895Z,6.01
2023-04-09T21:10:20.601Z,5.92
2023-04-09T21:12:47.561Z,5.94
2023-04-09T21:15:14.899Z,5.80
2023-04-09T21:17:42.030Z,5.77
2023-04-09T21:20:09.421Z,5.80
2023-04-09T21:22:36.574Z,5.78
2023-04-09T21:25:03.879Z,5.89
2023-04-09T21:27:31.344Z,5.86
2023-04-09T21:29:58.281Z,5.78
2023-04-09T21:32:25.565Z,5.82
2023-04-09T21:34:52.508Z,5.78
2023-04-09T21:37:19.530Z,5.80
2023-04-09T21:39:48.363Z,5.75
2023-04-09T21:42:15.408Z,5.71
2023-04-09T21:44:42.366Z,5.72
2023-04-09T21:47:09.703Z,5.83
2023-04-09T21:49:39.434Z,5.71
2023-04-09T21:52:14.308Z,5.73
2023-04-09T21:54:42.586Z,5.65
2023-04-09T21:57:10.158Z,5.65
2023-04-09T21:59:37.623Z,5.59
2023-04-09T22:02:05.692Z,5.61
2023-04-09T22:04:35.304Z,5.53
2023-04-09T22:07:03.518Z,5.62
2023-04-09T22:09:31.389Z,5.56
2023-04-09T22:11:59.191Z,5.58
2023-04-09T22:14:30.570Z,5.54
2023-04-09T22:16:58.540Z,5.53
2023-04-09T22:19:26.419Z,5.60
2023-04-09T22:21:53.765Z,5.54
2023-04-09T22:24:27.018Z,5.54
2023-04-09T22:26:54.386Z,5.51
2023-04-09T22:29:23.504Z,5.56
2023-04-09T22:31:50.692Z,5.60
2023-04-09T22:34:21.459Z,5.47
2023-04-09T22:36:49.238Z,5.42
2023-04-09T22:39:16.210Z,5.43
2023-04-09T22:41:43.480Z,5.41
2023-04-09T22:44:10.941Z,5.40
2023-04-09T22:46:38.301Z,5.40
2023-04-09T22:49:06.061Z,5.35
2023-04-09T22:51:38.152Z,5.48
2023-04-09T22:54:06.462Z,5.37
2023-04-09T22:56:33.824Z,5.38
2023-04-09T22:59:01.184Z,5.30
2023-04-09T23:01:28.476Z,5.27
2023-04-09T23:03:56.059Z,5.37
2023-04-09T23:06:23.152Z,5.31
2023-04-09T23:08:50.286Z,5.26
2023-04-09T23:11:17.340Z,5.44
2023-04-09T23:13:44.443Z,5.26
2023-04-09T23:16:11.458Z,5.26
2023-04-09T23:18:38.537Z,5.36
2023-04-09T23:21:09.397Z,5.11
2023-04-09T23:23:37.356Z,5.45
2023-04-09T23:26:04.770Z,5.36
2023-04-09T23:28:31.778Z,5.17
2023-04-09T23:30:58.758Z,5.11
2023-04-09T23:33:25.812Z,5.17
2023-04-09T23:35:52.862Z,5.02
2023-04-09T23:38:20.042Z,5.10
2023-04-09T23:40:48.875Z,5.06
2023-04-09T23:43:16.220Z,5.10
2023-04-09T23:45:44.199Z,5.10
2023-04-09T23:48:12.659Z,5.02
2023-04-09T23:50:41.498Z,4.95
2023-04-09T23:53:08.757Z,4.94
2023-04-09T23:55:41.372Z,4.91
2023-04-09T23:58:08.651Z,4.93
